sensor_id;sensor_type;location;lat;lon;timestamp;temperature;humidity
48860;DHT22;34679;51.436;-2.518;2023-09-07T00:02:24;22.20;99.90
48860;DHT22;34679;51.436;-2.518;2023-09-07T00:04:50;22.10;99.90
48860;DHT22;34679;51.436;-2.518;2023-09-07T00:07:15;22.10;99.90
48860;DHT22;34679;51.436;-2.518;2023-09-07T00:09:41;22.10;99.90
48860;DHT22;34679;51.436;-2.518;2023-09-07T00:12:07;22.10;99.90
48860;DHT22;34679;51.436;-2.518;2023-09-07T00:14:32;22.10;99.90
48860;DHT22;34679;51.436;-2.518;2023-09-07T00:16:58;22.10;99.90
48860;DHT22;34679;51.436;-2.518;2023-09-07T00:19:24;22.00;99.90
48860;DHT22;34679;51.436;-2.518;2023-09-07T00:21:49;22.10;99.90
48860;DHT22;34679;51.436;-2.518;2023-09-07T00:24:17;22.00;99.90
48860;DHT22;34679;51.436;-2.518;2023-09-07T00:26:44;22.10;99.90
48860;DHT22;34679;51.436;-2.518;2023-09-07T00:29:10;22.10;99.90
48860;DHT22;34679;51.436;-2.518;2023-09-07T00:31:36;22.10;99.90
48860;DHT22;34679;51.436;-2.518;2023-09-07T00:34:02;22.10;99.90
48860;DHT22;34679;51.436;-2.518;2023-09-07T00:36:28;22.00;99.90
48860;DHT22;34679;51.436;-2.518;2023-09-07T00:38:53;22.00;99.90
48860;DHT22;34679;51.436;-2.518;2023-09-07T00:41:19;22.00;99.90
48860;DHT22;34679;51.436;-2.518;2023-09-07T00:43:44;22.00;99.90
48860;DHT22;34679;51.436;-2.518;2023-09-07T00:46:10;22.00;99.90
48860;DHT22;34679;51.436;-2.518;2023-09-07T00:48:37;22.00;99.90
48860;DHT22;34679;51.436;-2.518;2023-09-07T00:51:03;22.10;99.90
48860;DHT22;34679;51.436;-2.518;2023-09-07T00:53:29;22.10;99.90
48860;DHT22;34679;51.436;-2.518;2023-09-07T00:55:55;22.20;99.90
48860;DHT22;34679;51.436;-2.518;2023-09-07T00:58:22;22.20;99.90
48860;DHT22;34679;51.436;-2.518;2023-09-07T01:00:48;22.20;99.90
48860;DHT22;34679;51.436;-2.518;2023-09-07T01:03:14;22.20;99.90
48860;DHT22;34679;51.436;-2.518;2023-09-07T01:05:50;22.20;99.90
48860;DHT22;34679;51.436;-2.518;2023-09-07T01:08:39;22.20;99.90
48860;DHT22;34679;51.436;-2.518;2023-09-07T01:11:17;22.20;99.90
48860;DHT22;34679;51.436;-2.518;2023-09-07T01:13:43;22.10;99.90
48860;DHT22;34679;51.436;-2.518;2023-09-07T01:16:13;22.00;99.90
48860;DHT22;34679;51.436;-2.518;2023-09-07T01:18:42;22.00;99.90
48860;DHT22;34679;51.436;-2.518;2023-09-07T01:21:08;21.90;99.90
48860;DHT22;34679;51.436;-2.518;2023-09-07T01:23:35;21.90;99.90
48860;DHT22;34679;51.436;-2.518;2023-09-07T01:26:02;21.80;99.90
48860;DHT22;34679;51.436;-2.518;2023-09-07T01:28:28;21.80;99.90
48860;DHT22;34679;51.436;-2.518;2023-09-07T01:30:54;21.80;99.90
48860;DHT22;34679;51.436;-2.518;2023-09-07T01:33:19;21.80;99.90
48860;DHT22;34679;51.436;-2.518;2023-09-07T01:35:45;21.80;99.90
48860;DHT22;34679;51.436;-2.518;2023-09-07T01:38:11;21.80;99.90
48860;DHT22;34679;51.436;-2.518;2023-09-07T01:40:37;21.80;99.90
48860;DHT22;34679;51.436;-2.518;2023-09-07T01:43:03;21.70;99.90
48860;DHT22;34679;51.436;-2.518;2023-09-07T01:45:29;21.70;99.90
48860;DHT22;34679;51.436;-2.518;2023-09-07T01:47:54;21.70;99.90
48860;DHT22;34679;51.436;-2.518;2023-09-07T01:50:20;21.60;99.90
48860;DHT22;34679;51.436;-2.518;2023-09-07T01:52:49;21.60;99.90
48860;DHT22;34679;51.436;-2.518;2023-09-07T01:55:14;21.60;99.90
48860;DHT22;34679;51.436;-2.518;2023-09-07T01:57:40;21.60;99.90
48860;DHT22;34679;51.436;-2.518;2023-09-07T02:00:06;21.60;99.90
48860;DHT22;34679;51.436;-2.518;2023-09-07T02:02:32;21.60;99.90
48860;DHT22;34679;51.436;-2.518;2023-09-07T02:04:58;21.60;99.90
48860;DHT22;34679;51.436;-2.518;2023-09-07T02:07:24;21.60;99.90
48860;DHT22;34679;51.436;-2.518;2023-09-07T02:09:49;21.60;99.90
48860;DHT22;34679;51.436;-2.518;2023-09-07T02:12:15;21.60;99.90
48860;DHT22;34679;51.436;-2.518;2023-09-07T02:14:41;21.50;99.90
48860;DHT22;34679;51.436;-2.518;2023-09-07T02:17:06;21.50;99.90
48860;DHT22;34679;51.436;-2.518;2023-09-07T02:19:32;21.50;99.90
48860;DHT22;34679;51.436;-2.518;2023-09-07T02:21:58;21.50;99.90
48860;DHT22;34679;51.436;-2.518;2023-09-07T02:24:23;21.40;99.90
48860;DHT22;34679;51.436;-2.518;2023-09-07T02:26:49;21.50;99.90
48860;DHT22;34679;51.436;-2.518;2023-09-07T02:29:15;21.50;99.90
48860;DHT22;34679;51.436;-2.518;2023-09-07T02:31:41;21.50;99.90
48860;DHT22;34679;51.436;-2.518;2023-09-07T02:34:07;21.50;99.90
48860;DHT22;34679;51.436;-2.518;2023-09-07T02:36:34;21.50;99.90
48860;DHT22;34679;51.436;-2.518;2023-09-07T02:39:02;21.50;99.90
48860;DHT22;34679;51.436;-2.518;2023-09-07T02:41:30;21.40;99.90
48860;DHT22;34679;51.436;-2.518;2023-09-07T02:43:56;21.40;99.90
48860;DHT22;34679;51.436;-2.518;2023-09-07T02:46:21;21.50;99.90
48860;DHT22;34679;51.436;-2.518;2023-09-07T02:48:47;21.50;99.90
48860;DHT22;34679;51.436;-2.518;2023-09-07T02:51:13;21.60;99.90
48860;DHT22;34679;51.436;-2.518;2023-09-07T02:53:39;21.60;99.90
48860;DHT22;34679;51.436;-2.518;2023-09-07T02:56:05;21.60;99.90
48860;DHT22;34679;51.436;-2.518;2023-09-07T02:58:31;21.50;99.90
48860;DHT22;34679;51.436;-2.518;2023-09-07T03:00:56;21.50;99.90
48860;DHT22;34679;51.436;-2.518;2023-09-07T03:03:23;21.50;99.90
48860;DHT22;34679;51.436;-2.518;2023-09-07T03:05:49;21.50;99.90
48860;DHT22;34679;51.436;-2.518;2023-09-07T03:08:14;21.50;99.90
48860;DHT22;34679;51.436;-2.518;2023-09-07T03:10:40;21.40;99.90
48860;DHT22;34679;51.436;-2.518;2023-09-07T03:13:09;21.40;99.90
48860;DHT22;34679;51.436;-2.518;2023-09-07T03:15:35;21.40;99.90
48860;DHT22;34679;51.436;-2.518;2023-09-07T03:18:01;21.40;99.90
48860;DHT22;34679;51.436;-2.518;2023-09-07T03:20:27;21.50;99.90
48860;DHT22;34679;51.436;-2.518;2023-09-07T03:22:52;21.40;99.90
48860;DHT22;34679;51.436;-2.518;2023-09-07T03:25:18;21.40;99.90
48860;DHT22;34679;51.436;-2.518;2023-09-07T03:27:44;21.40;99.90
48860;DHT22;34679;51.436;-2.518;2023-09-07T03:30:10;21.40;99.90
48860;DHT22;34679;51.436;-2.518;2023-09-07T03:32:36;21.30;99.90
48860;DHT22;34679;51.436;-2.518;2023-09-07T03:35:03;21.30;99.90
48860;DHT22;34679;51.436;-2.518;2023-09-07T03:37:30;21.30;99.90
48860;DHT22;34679;51.436;-2.518;2023-09-07T03:39:56;21.30;99.90
48860;DHT22;34679;51.436;-2.518;2023-09-07T03:42:22;21.40;99.90
48860;DHT22;34679;51.436;-2.518;2023-09-07T03:44:48;21.40;99.90
48860;DHT22;34679;51.436;-2.518;2023-09-07T03:47:14;21.40;99.90
48860;DHT22;34679;51.436;-2.518;2023-09-07T03:49:41;21.40;99.90
48860;DHT22;34679;51.436;-2.518;2023-09-07T03:52:07;21.30;99.90
48860;DHT22;34679;51.436;-2.518;2023-09-07T03:54:32;21.30;99.90
48860;DHT22;34679;51.436;-2.518;2023-09-07T03:56:58;21.30;99.90
48860;DHT22;34679;51.436;-2.518;2023-09-07T03:59:24;21.30;99.90
48860;DHT22;34679;51.436;-2.518;2023-09-07T04:01:49;21.30;99.90
48860;DHT22;34679;51.436;-2.518;2023-09-07T04:04:15;21.40;99.90
48860;DHT22;34679;51.436;-2.518;2023-09-07T04:06:41;21.40;99.90
48860;DHT22;34679;51.436;-2.518;2023-09-07T04:09:07;21.30;99.90
48860;DHT22;34679;51.436;-2.518;2023-09-07T04:11:32;21.30;99.90
48860;DHT22;34679;51.436;-2.518;2023-09-07T04:13:58;21.20;99.90
48860;DHT22;34679;51.436;-2.518;2023-09-07T04:16:24;21.20;99.90
48860;DHT22;34679;51.436;-2.518;2023-09-07T04:18:49;21.20;99.90
48860;DHT22;34679;51.436;-2.518;2023-09-07T04:21:15;21.10;99.90
48860;DHT22;34679;51.436;-2.518;2023-09-07T04:23:41;21.10;99.90
48860;DHT22;34679;51.436;-2.518;2023-09-07T04:26:11;21.10;99.90
48860;DHT22;34679;51.436;-2.518;2023-09-07T04:28:38;21.10;99.90
48860;DHT22;34679;51.436;-2.518;2023-09-07T04:31:05;21.10;99.90
48860;DHT22;34679;51.436;-2.518;2023-09-07T04:33:31;21.00;99.90
48860;DHT22;34679;51.436;-2.518;2023-09-07T04:36:10;21.00;99.90
48860;DHT22;34679;51.436;-2.518;2023-09-07T04:38:36;21.00;99.90
48860;DHT22;34679;51.436;-2.518;2023-09-07T04:41:10;20.90;99.90
48860;DHT22;34679;51.436;-2.518;2023-09-07T04:43:36;20.90;99.90
48860;DHT22;34679;51.436;-2.518;2023-09-07T04:46:03;20.90;99.90
48860;DHT22;34679;51.436;-2.518;2023-09-07T04:48:29;20.90;99.90
48860;DHT22;34679;51.436;-2.518;2023-09-07T04:51:01;20.80;99.90
48860;DHT22;34679;51.436;-2.518;2023-09-07T04:53:29;20.90;99.90
48860;DHT22;34679;51.436;-2.518;2023-09-07T04:55:55;20.80;99.90
48860;DHT22;34679;51.436;-2.518;2023-09-07T04:58:20;20.80;99.90
48860;DHT22;34679;51.436;-2.518;2023-09-07T05:00:46;20.80;99.90
48860;DHT22;34679;51.436;-2.518;2023-09-07T05:03:12;20.70;99.90
48860;DHT22;34679;51.436;-2.518;2023-09-07T05:05:38;20.70;99.90
48860;DHT22;34679;51.436;-2.518;2023-09-07T05:08:05;20.70;99.90
48860;DHT22;34679;51.436;-2.518;2023-09-07T05:10:34;20.70;99.90
48860;DHT22;34679;51.436;-2.518;2023-09-07T05:13:00;20.70;99.90
48860;DHT22;34679;51.436;-2.518;2023-09-07T05:15:25;20.80;99.90
48860;DHT22;34679;51.436;-2.518;2023-09-07T05:17:52;20.80;99.90
48860;DHT22;34679;51.436;-2.518;2023-09-07T05:20:18;20.80;99.90
48860;DHT22;34679;51.436;-2.518;2023-09-07T05:22:43;20.80;99.90
48860;DHT22;34679;51.436;-2.518;2023-09-07T05:25:09;20.70;99.90
48860;DHT22;34679;51.436;-2.518;2023-09-07T05:27:35;20.60;99.90
48860;DHT22;34679;51.436;-2.518;2023-09-07T05:30:02;20.60;99.90
48860;DHT22;34679;51.436;-2.518;2023-09-07T05:32:28;20.60;99.90
48860;DHT22;34679;51.436;-2.518;2023-09-07T05:34:53;20.60;99.90
48860;DHT22;34679;51.436;-2.518;2023-09-07T05:37:19;20.60;99.90
48860;DHT22;34679;51.436;-2.518;2023-09-07T05:39:45;20.60;99.90
48860;DHT22;34679;51.436;-2.518;2023-09-07T05:42:11;20.60;99.90
48860;DHT22;34679;51.436;-2.518;2023-09-07T05:44:38;20.60;99.90
48860;DHT22;34679;51.436;-2.518;2023-09-07T05:47:04;20.70;99.90
48860;DHT22;34679;51.436;-2.518;2023-09-07T05:49:30;20.70;99.90
48860;DHT22;34679;51.436;-2.518;2023-09-07T05:51:56;20.70;99.90
48860;DHT22;34679;51.436;-2.518;2023-09-07T05:54:22;20.80;99.90
48860;DHT22;34679;51.436;-2.518;2023-09-07T05:56:48;20.90;99.90
48860;DHT22;34679;51.436;-2.518;2023-09-07T05:59:13;20.90;99.90
48860;DHT22;34679;51.436;-2.518;2023-09-07T06:01:40;21.00;99.90
48860;DHT22;34679;51.436;-2.518;2023-09-07T06:04:06;21.10;99.90
48860;DHT22;34679;51.436;-2.518;2023-09-07T06:06:33;21.00;99.90
48860;DHT22;34679;51.436;-2.518;2023-09-07T06:08:59;21.00;99.90
48860;DHT22;34679;51.436;-2.518;2023-09-07T06:11:25;21.00;99.90
48860;DHT22;34679;51.436;-2.518;2023-09-07T06:13:51;21.10;99.90
48860;DHT22;34679;51.436;-2.518;2023-09-07T06:16:17;21.10;99.90
48860;DHT22;34679;51.436;-2.518;2023-09-07T06:18:43;21.20;99.90
48860;DHT22;34679;51.436;-2.518;2023-09-07T06:21:08;21.20;99.90
48860;DHT22;34679;51.436;-2.518;2023-09-07T06:23:34;21.20;99.90
48860;DHT22;34679;51.436;-2.518;2023-09-07T06:26:00;21.30;99.90
48860;DHT22;34679;51.436;-2.518;2023-09-07T06:28:26;21.40;99.90
48860;DHT22;34679;51.436;-2.518;2023-09-07T06:30:52;21.40;99.90
48860;DHT22;34679;51.436;-2.518;2023-09-07T06:33:18;21.40;99.90
48860;DHT22;34679;51.436;-2.518;2023-09-07T06:35:44;21.60;99.90
48860;DHT22;34679;51.436;-2.518;2023-09-07T06:38:10;21.60;99.90
48860;DHT22;34679;51.436;-2.518;2023-09-07T06:40:35;21.60;99.90
48860;DHT22;34679;51.436;-2.518;2023-09-07T06:43:01;21.60;99.90
48860;DHT22;34679;51.436;-2.518;2023-09-07T06:45:36;21.60;99.90
48860;DHT22;34679;51.436;-2.518;2023-09-07T06:48:03;21.60;99.90
48860;DHT22;34679;51.436;-2.518;2023-09-07T06:50:29;21.60;99.90
48860;DHT22;34679;51.436;-2.518;2023-09-07T06:52:54;21.80;99.90
48860;DHT22;34679;51.436;-2.518;2023-09-07T06:55:20;21.80;99.90
48860;DHT22;34679;51.436;-2.518;2023-09-07T06:57:46;22.20;99.90
48860;DHT22;34679;51.436;-2.518;2023-09-07T07:00:12;22.40;99.90
48860;DHT22;34679;51.436;-2.518;2023-09-07T07:02:38;22.60;99.90
48860;DHT22;34679;51.436;-2.518;2023-09-07T07:05:04;22.60;99.90
48860;DHT22;34679;51.436;-2.518;2023-09-07T07:07:30;22.50;99.90
48860;DHT22;34679;51.436;-2.518;2023-09-07T07:09:56;22.40;99.90
48860;DHT22;34679;51.436;-2.518;2023-09-07T07:12:22;22.30;99.90
48860;DHT22;34679;51.436;-2.518;2023-09-07T07:14:48;22.20;99.90
48860;DHT22;34679;51.436;-2.518;2023-09-07T07:17:13;22.10;99.90
48860;DHT22;34679;51.436;-2.518;2023-09-07T07:19:39;22.10;99.90
48860;DHT22;34679;51.436;-2.518;2023-09-07T07:22:05;22.20;99.90
48860;DHT22;34679;51.436;-2.518;2023-09-07T07:24:31;22.10;99.90
48860;DHT22;34679;51.436;-2.518;2023-09-07T07:26:56;22.30;99.90
48860;DHT22;34679;51.436;-2.518;2023-09-07T07:29:22;22.50;99.90
48860;DHT22;34679;51.436;-2.518;2023-09-07T07:31:48;22.80;99.90
48860;DHT22;34679;51.436;-2.518;2023-09-07T07:34:13;23.00;99.90
48860;DHT22;34679;51.436;-2.518;2023-09-07T07:36:39;23.30;99.90
48860;DHT22;34679;51.436;-2.518;2023-09-07T07:39:05;23.50;99.90
48860;DHT22;34679;51.436;-2.518;2023-09-07T07:41:34;23.60;99.90
48860;DHT22;34679;51.436;-2.518;2023-09-07T07:44:00;24.00;99.90
48860;DHT22;34679;51.436;-2.518;2023-09-07T07:46:26;24.40;99.90
48860;DHT22;34679;51.436;-2.518;2023-09-07T07:48:52;24.60;99.90
48860;DHT22;34679;51.436;-2.518;2023-09-07T07:51:18;24.90;99.90
48860;DHT22;34679;51.436;-2.518;2023-09-07T07:53:43;24.80;99.90
48860;DHT22;34679;51.436;-2.518;2023-09-07T07:56:16;25.10;99.90
48860;DHT22;34679;51.436;-2.518;2023-09-07T07:58:42;25.30;99.90
48860;DHT22;34679;51.436;-2.518;2023-09-07T08:01:18;25.50;99.90
48860;DHT22;34679;51.436;-2.518;2023-09-07T08:03:45;26.30;99.90
48860;DHT22;34679;51.436;-2.518;2023-09-07T08:06:11;27.00;99.90
48860;DHT22;34679;51.436;-2.518;2023-09-07T08:08:39;27.10;99.90
48860;DHT22;34679;51.436;-2.518;2023-09-07T08:11:05;27.60;99.90
48860;DHT22;34679;51.436;-2.518;2023-09-07T08:13:34;27.30;99.90
48860;DHT22;34679;51.436;-2.518;2023-09-07T08:16:01;27.70;99.90
48860;DHT22;34679;51.436;-2.518;2023-09-07T08:18:27;27.80;99.90
48860;DHT22;34679;51.436;-2.518;2023-09-07T08:20:53;28.20;99.90
48860;DHT22;34679;51.436;-2.518;2023-09-07T08:23:21;28.20;99.90
48860;DHT22;34679;51.436;-2.518;2023-09-07T08:25:47;28.40;99.90
48860;DHT22;34679;51.436;-2.518;2023-09-07T08:28:13;28.10;99.90
48860;DHT22;34679;51.436;-2.518;2023-09-07T08:30:42;28.50;99.90
48860;DHT22;34679;51.436;-2.518;2023-09-07T08:33:08;29.10;99.90
48860;DHT22;34679;51.436;-2.518;2023-09-07T08:35:34;29.20;99.90
48860;DHT22;34679;51.436;-2.518;2023-09-07T08:38:03;29.40;99.90
48860;DHT22;34679;51.436;-2.518;2023-09-07T08:40:34;30.10;99.90
48860;DHT22;34679;51.436;-2.518;2023-09-07T08:43:04;29.90;99.90
48860;DHT22;34679;51.436;-2.518;2023-09-07T08:45:31;30.00;99.90
48860;DHT22;34679;51.436;-2.518;2023-09-07T08:48:02;30.00;99.90
48860;DHT22;34679;51.436;-2.518;2023-09-07T08:50:30;30.30;99.90
48860;DHT22;34679;51.436;-2.518;2023-09-07T08:52:56;30.00;99.90
48860;DHT22;34679;51.436;-2.518;2023-09-07T08:55:24;30.40;99.90
48860;DHT22;34679;51.436;-2.518;2023-09-07T08:57:50;30.80;99.90
48860;DHT22;34679;51.436;-2.518;2023-09-07T09:00:16;31.00;99.90
48860;DHT22;34679;51.436;-2.518;2023-09-07T09:02:43;31.10;99.90
48860;DHT22;34679;51.436;-2.518;2023-09-07T09:05:12;30.30;99.90
48860;DHT22;34679;51.436;-2.518;2023-09-07T09:07:40;30.00;99.90
48860;DHT22;34679;51.436;-2.518;2023-09-07T09:10:06;30.00;99.90
48860;DHT22;34679;51.436;-2.518;2023-09-07T09:12:32;29.90;99.90
48860;DHT22;34679;51.436;-2.518;2023-09-07T09:14:59;29.70;99.90
48860;DHT22;34679;51.436;-2.518;2023-09-07T09:17:26;29.80;99.90
48860;DHT22;34679;51.436;-2.518;2023-09-07T09:19:51;29.80;99.90
48860;DHT22;34679;51.436;-2.518;2023-09-07T09:22:17;29.80;99.90
48860;DHT22;34679;51.436;-2.518;2023-09-07T09:24:47;30.00;99.90
48860;DHT22;34679;51.436;-2.518;2023-09-07T09:27:13;29.80;99.90
48860;DHT22;34679;51.436;-2.518;2023-09-07T09:29:39;29.90;99.90
48860;DHT22;34679;51.436;-2.518;2023-09-07T09:32:07;30.10;99.90
48860;DHT22;34679;51.436;-2.518;2023-09-07T09:34:37;30.00;99.90
48860;DHT22;34679;51.436;-2.518;2023-09-07T09:37:03;30.10;99.90
48860;DHT22;34679;51.436;-2.518;2023-09-07T09:39:29;30.50;99.90
48860;DHT22;34679;51.436;-2.518;2023-09-07T09:41:55;30.10;99.90
48860;DHT22;34679;51.436;-2.518;2023-09-07T09:44:23;29.40;99.90
48860;DHT22;34679;51.436;-2.518;2023-09-07T09:46:56;29.10;99.90
48860;DHT22;34679;51.436;-2.518;2023-09-07T09:49:23;28.60;99.90
48860;DHT22;34679;51.436;-2.518;2023-09-07T09:51:49;28.10;99.90
48860;DHT22;34679;51.436;-2.518;2023-09-07T09:54:18;27.80;99.90
48860;DHT22;34679;51.436;-2.518;2023-09-07T09:56:44;27.50;99.90
48860;DHT22;34679;51.436;-2.518;2023-09-07T09:59:14;27.30;99.90
48860;DHT22;34679;51.436;-2.518;2023-09-07T10:01:49;27.70;99.90
48860;DHT22;34679;51.436;-2.518;2023-09-07T10:04:17;28.60;99.90
48860;DHT22;34679;51.436;-2.518;2023-09-07T10:07:10;29.10;99.90
48860;DHT22;34679;51.436;-2.518;2023-09-07T10:09:38;29.60;99.90
48860;DHT22;34679;51.436;-2.518;2023-09-07T10:12:10;29.60;99.90
48860;DHT22;34679;51.436;-2.518;2023-09-07T10:14:42;29.70;99.90
48860;DHT22;34679;51.436;-2.518;2023-09-07T10:17:21;29.80;99.90
48860;DHT22;34679;51.436;-2.518;2023-09-07T10:19:47;29.70;99.90
48860;DHT22;34679;51.436;-2.518;2023-09-07T10:22:23;29.70;99.90
48860;DHT22;34679;51.436;-2.518;2023-09-07T10:24:57;29.50;99.90
48860;DHT22;34679;51.436;-2.518;2023-09-07T10:27:23;29.40;99.90
48860;DHT22;34679;51.436;-2.518;2023-09-07T10:29:52;29.30;99.90
48860;DHT22;34679;51.436;-2.518;2023-09-07T10:32:18;29.30;99.90
48860;DHT22;34679;51.436;-2.518;2023-09-07T10:34:44;29.30;99.90
48860;DHT22;34679;51.436;-2.518;2023-09-07T10:37:14;29.40;99.90
48860;DHT22;34679;51.436;-2.518;2023-09-07T10:39:40;29.30;99.90
48860;DHT22;34679;51.436;-2.518;2023-09-07T10:42:08;29.50;99.90
48860;DHT22;34679;51.436;-2.518;2023-09-07T10:44:34;29.60;99.90
48860;DHT22;34679;51.436;-2.518;2023-09-07T10:47:00;29.60;99.90
48860;DHT22;34679;51.436;-2.518;2023-09-07T10:49:26;29.50;99.90
48860;DHT22;34679;51.436;-2.518;2023-09-07T10:51:51;29.30;99.90
48860;DHT22;34679;51.436;-2.518;2023-09-07T10:54:21;29.40;99.90
48860;DHT22;34679;51.436;-2.518;2023-09-07T10:56:49;29.40;99.90
48860;DHT22;34679;51.436;-2.518;2023-09-07T10:59:16;29.30;99.90
48860;DHT22;34679;51.436;-2.518;2023-09-07T11:01:44;29.40;99.90
48860;DHT22;34679;51.436;-2.518;2023-09-07T11:04:10;29.70;99.90
48860;DHT22;34679;51.436;-2.518;2023-09-07T11:06:40;29.90;99.90
48860;DHT22;34679;51.436;-2.518;2023-09-07T11:09:06;29.80;99.90
48860;DHT22;34679;51.436;-2.518;2023-09-07T11:11:34;29.90;99.90
48860;DHT22;34679;51.436;-2.518;2023-09-07T11:14:04;29.80;99.90
48860;DHT22;34679;51.436;-2.518;2023-09-07T11:16:33;29.60;99.90
48860;DHT22;34679;51.436;-2.518;2023-09-07T11:19:12;29.60;99.90
48860;DHT22;34679;51.436;-2.518;2023-09-07T11:22:01;29.60;99.90
48860;DHT22;34679;51.436;-2.518;2023-09-07T11:24:30;29.60;99.90
48860;DHT22;34679;51.436;-2.518;2023-09-07T11:27:30;29.50;99.90
48860;DHT22;34679;51.436;-2.518;2023-09-07T11:29:56;29.40;99.90
48860;DHT22;34679;51.436;-2.518;2023-09-07T11:32:23;29.20;99.90
48860;DHT22;34679;51.436;-2.518;2023-09-07T11:34:51;29.10;99.90
48860;DHT22;34679;51.436;-2.518;2023-09-07T11:37:33;29.00;99.90
48860;DHT22;34679;51.436;-2.518;2023-09-07T11:40:00;29.00;99.90
48860;DHT22;34679;51.436;-2.518;2023-09-07T11:42:36;29.10;99.90
48860;DHT22;34679;51.436;-2.518;2023-09-07T11:45:02;29.10;99.90
48860;DHT22;34679;51.436;-2.518;2023-09-07T11:47:28;29.20;99.90
48860;DHT22;34679;51.436;-2.518;2023-09-07T11:49:54;29.20;99.90
48860;DHT22;34679;51.436;-2.518;2023-09-07T11:52:25;29.30;99.90
48860;DHT22;34679;51.436;-2.518;2023-09-07T11:54:51;29.30;99.90
48860;DHT22;34679;51.436;-2.518;2023-09-07T11:57:20;29.50;99.90
48860;DHT22;34679;51.436;-2.518;2023-09-07T11:59:48;29.60;99.90
48860;DHT22;34679;51.436;-2.518;2023-09-07T12:02:16;29.70;99.90
48860;DHT22;34679;51.436;-2.518;2023-09-07T12:04:43;29.80;99.90
48860;DHT22;34679;51.436;-2.518;2023-09-07T12:07:09;29.90;99.90
48860;DHT22;34679;51.436;-2.518;2023-09-07T12:09:35;29.70;99.90
48860;DHT22;34679;51.436;-2.518;2023-09-07T12:12:02;29.90;99.90
48860;DHT22;34679;51.436;-2.518;2023-09-07T12:14:28;30.00;99.90
48860;DHT22;34679;51.436;-2.518;2023-09-07T12:16:54;29.90;99.90
48860;DHT22;34679;51.436;-2.518;2023-09-07T12:19:19;29.90;99.90
48860;DHT22;34679;51.436;-2.518;2023-09-07T12:21:45;29.90;99.90
48860;DHT22;34679;51.436;-2.518;2023-09-07T12:24:10;29.80;99.90
48860;DHT22;34679;51.436;-2.518;2023-09-07T12:26:37;29.70;99.90
48860;DHT22;34679;51.436;-2.518;2023-09-07T12:29:04;29.80;99.90
48860;DHT22;34679;51.436;-2.518;2023-09-07T12:31:29;30.00;99.90
48860;DHT22;34679;51.436;-2.518;2023-09-07T12:33:57;30.10;99.90
48860;DHT22;34679;51.436;-2.518;2023-09-07T12:36:22;30.30;99.90
48860;DHT22;34679;51.436;-2.518;2023-09-07T12:38:48;30.40;99.90
48860;DHT22;34679;51.436;-2.518;2023-09-07T12:41:14;30.60;99.90
48860;DHT22;34679;51.436;-2.518;2023-09-07T12:43:41;30.60;99.90
48860;DHT22;34679;51.436;-2.518;2023-09-07T12:46:08;30.60;99.90
48860;DHT22;34679;51.436;-2.518;2023-09-07T12:48:34;30.70;99.90
48860;DHT22;34679;51.436;-2.518;2023-09-07T12:51:00;30.90;99.90
48860;DHT22;34679;51.436;-2.518;2023-09-07T12:53:26;31.20;99.90
48860;DHT22;34679;51.436;-2.518;2023-09-07T12:55:53;31.90;99.90
48860;DHT22;34679;51.436;-2.518;2023-09-07T12:58:19;31.10;99.90
48860;DHT22;34679;51.436;-2.518;2023-09-07T13:00:45;31.10;99.90
48860;DHT22;34679;51.436;-2.518;2023-09-07T13:03:10;30.90;99.90
48860;DHT22;34679;51.436;-2.518;2023-09-07T13:05:38;30.90;99.90
48860;DHT22;34679;51.436;-2.518;2023-09-07T13:08:06;30.80;99.90
48860;DHT22;34679;51.436;-2.518;2023-09-07T13:10:33;30.80;99.90
48860;DHT22;34679;51.436;-2.518;2023-09-07T13:12:58;30.70;99.90
48860;DHT22;34679;51.436;-2.518;2023-09-07T13:15:24;30.50;99.90
48860;DHT22;34679;51.436;-2.518;2023-09-07T13:17:50;30.40;99.90
48860;DHT22;34679;51.436;-2.518;2023-09-07T13:20:15;30.40;99.90
48860;DHT22;34679;51.436;-2.518;2023-09-07T13:22:42;30.50;99.90
48860;DHT22;34679;51.436;-2.518;2023-09-07T13:25:08;30.60;99.90
48860;DHT22;34679;51.436;-2.518;2023-09-07T13:27:33;30.70;99.90
48860;DHT22;34679;51.436;-2.518;2023-09-07T13:30:00;30.70;99.90
48860;DHT22;34679;51.436;-2.518;2023-09-07T13:32:27;30.70;99.90
48860;DHT22;34679;51.436;-2.518;2023-09-07T13:34:53;30.50;99.90
48860;DHT22;34679;51.436;-2.518;2023-09-07T13:37:36;30.50;99.90
48860;DHT22;34679;51.436;-2.518;2023-09-07T13:40:11;30.30;99.90
48860;DHT22;34679;51.436;-2.518;2023-09-07T13:42:38;30.40;99.90
48860;DHT22;34679;51.436;-2.518;2023-09-07T13:45:04;30.50;99.90
48860;DHT22;34679;51.436;-2.518;2023-09-07T13:47:30;30.40;99.90
48860;DHT22;34679;51.436;-2.518;2023-09-07T13:49:56;30.50;99.90
48860;DHT22;34679;51.436;-2.518;2023-09-07T13:52:21;30.60;99.90
48860;DHT22;34679;51.436;-2.518;2023-09-07T13:54:47;30.80;99.90
48860;DHT22;34679;51.436;-2.518;2023-09-07T13:57:13;30.90;99.90
48860;DHT22;34679;51.436;-2.518;2023-09-07T13:59:39;31.00;99.90
48860;DHT22;34679;51.436;-2.518;2023-09-07T14:02:05;31.20;99.90
48860;DHT22;34679;51.436;-2.518;2023-09-07T14:04:31;31.20;99.90
48860;DHT22;34679;51.436;-2.518;2023-09-07T14:06:56;31.20;99.90
48860;DHT22;34679;51.436;-2.518;2023-09-07T14:09:22;31.20;99.90
48860;DHT22;34679;51.436;-2.518;2023-09-07T14:11:49;31.30;99.90
48860;DHT22;34679;51.436;-2.518;2023-09-07T14:14:14;31.40;99.90
48860;DHT22;34679;51.436;-2.518;2023-09-07T14:16:41;31.50;99.90
48860;DHT22;34679;51.436;-2.518;2023-09-07T14:19:07;31.60;99.90
48860;DHT22;34679;51.436;-2.518;2023-09-07T14:21:33;31.70;99.90
48860;DHT22;34679;51.436;-2.518;2023-09-07T14:23:58;31.80;99.90
48860;DHT22;34679;51.436;-2.518;2023-09-07T14:26:24;31.70;99.90
48860;DHT22;34679;51.436;-2.518;2023-09-07T14:28:50;31.80;99.90
48860;DHT22;34679;51.436;-2.518;2023-09-07T14:31:16;31.70;99.90
48860;DHT22;34679;51.436;-2.518;2023-09-07T14:33:41;31.60;99.90
48860;DHT22;34679;51.436;-2.518;2023-09-07T14:36:08;31.60;99.90
48860;DHT22;34679;51.436;-2.518;2023-09-07T14:38:34;31.50;99.90
48860;DHT22;34679;51.436;-2.518;2023-09-07T14:41:06;31.70;99.90
48860;DHT22;34679;51.436;-2.518;2023-09-07T14:43:32;31.80;99.90
48860;DHT22;34679;51.436;-2.518;2023-09-07T14:45:58;31.80;99.90
48860;DHT22;34679;51.436;-2.518;2023-09-07T14:48:24;31.80;99.90
48860;DHT22;34679;51.436;-2.518;2023-09-07T14:50:50;31.70;99.90
48860;DHT22;34679;51.436;-2.518;2023-09-07T14:53:16;31.60;99.90
48860;DHT22;34679;51.436;-2.518;2023-09-07T14:55:44;31.30;99.90
48860;DHT22;34679;51.436;-2.518;2023-09-07T14:58:09;31.10;99.90
48860;DHT22;34679;51.436;-2.518;2023-09-07T15:00:36;31.00;99.90
48860;DHT22;34679;51.436;-2.518;2023-09-07T15:03:01;31.00;99.90
48860;DHT22;34679;51.436;-2.518;2023-09-07T15:05:27;30.90;99.90
48860;DHT22;34679;51.436;-2.518;2023-09-07T15:07:54;30.90;99.90
48860;DHT22;34679;51.436;-2.518;2023-09-07T15:10:19;31.00;99.90
48860;DHT22;34679;51.436;-2.518;2023-09-07T15:12:45;31.10;99.90
48860;DHT22;34679;51.436;-2.518;2023-09-07T15:15:11;31.00;99.90